sensor_id;sensor_type;location;lat;lon;timestamp;P1;durP1;ratioP1;P2;durP2;ratioP2
15126;SDS011;7664;52.008;4.748;2022-10-31T00:00:46;3.72;;;2.08;;
15126;SDS011;7664;52.008;4.748;2022-10-31T00:03:15;3.47;;;2.00;;
15126;SDS011;7664;52.008;4.748;2022-10-31T00:05:43;2.90;;;1.67;;
15126;SDS011;7664;52.008;4.748;2022-10-31T00:08:11;2.78;;;1.95;;
15126;SDS011;7664;52.008;4.748;2022-10-31T00:10:41;3.42;;;2.05;;
15126;SDS011;7664;52.008;4.748;2022-10-31T00:13:10;4.60;;;1.85;;
15126;SDS011;7664;52.008;4.748;2022-10-31T00:15:40;4.28;;;1.90;;
15126;SDS011;7664;52.008;4.748;2022-10-31T00:18:08;4.93;;;1.80;;
15126;SDS011;7664;52.008;4.748;2022-10-31T00:20:37;3.50;;;1.60;;
15126;SDS011;7664;52.008;4.748;2022-10-31T00:23:06;5.70;;;1.80;;
15126;SDS011;7664;52.008;4.748;2022-10-31T00:25:35;1.90;;;1.70;;
15126;SDS011;7664;52.008;4.748;2022-10-31T00:28:05;2.75;;;1.80;;
15126;SDS011;7664;52.008;4.748;2022-10-31T00:30:34;3.30;;;2.10;;
15126;SDS011;7664;52.008;4.748;2022-10-31T00:33:02;7.45;;;2.65;;
15126;SDS011;7664;52.008;4.748;2022-10-31T00:35:31;3.28;;;2.15;;
15126;SDS011;7664;52.008;4.748;2022-10-31T00:37:59;4.65;;;2.30;;
15126;SDS011;7664;52.008;4.748;2022-10-31T00:40:27;2.42;;;1.70;;
15126;SDS011;7664;52.008;4.748;2022-10-31T00:42:56;4.30;;;2.75;;
15126;SDS011;7664;52.008;4.748;2022-10-31T00:45:26;4.00;;;2.53;;
15126;SDS011;7664;52.008;4.748;2022-10-31T00:47:54;3.00;;;2.22;;
15126;SDS011;7664;52.008;4.748;2022-10-31T00:50:23;5.40;;;2.63;;
15126;SDS011;7664;52.008;4.748;2022-10-31T00:52:51;4.57;;;2.40;;
15126;SDS011;7664;52.008;4.748;2022-10-31T00:55:20;4.05;;;2.35;;
15126;SDS011;7664;52.008;4.748;2022-10-31T00:57:48;6.85;;;3.15;;
15126;SDS011;7664;52.008;4.748;2022-10-31T01:00:16;6.00;;;3.88;;
15126;SDS011;7664;52.008;4.748;2022-10-31T01:02:47;5.25;;;2.80;;
15126;SDS011;7664;52.008;4.748;2022-10-31T01:05:16;5.18;;;3.58;;
15126;SDS011;7664;52.008;4.748;2022-10-31T01:07:45;4.90;;;3.47;;
15126;SDS011;7664;52.008;4.748;2022-10-31T01:10:14;5.55;;;3.50;;
15126;SDS011;7664;52.008;4.748;2022-10-31T01:12:44;5.90;;;3.83;;
15126;SDS011;7664;52.008;4.748;2022-10-31T01:15:14;4.82;;;3.80;;
15126;SDS011;7664;52.008;4.748;2022-10-31T01:17:42;5.32;;;3.83;;
15126;SDS011;7664;52.008;4.748;2022-10-31T01:20:13;8.45;;;3.70;;
15126;SDS011;7664;52.008;4.748;2022-10-31T01:22:41;8.82;;;4.38;;
15126;SDS011;7664;52.008;4.748;2022-10-31T01:25:10;5.07;;;4.00;;
15126;SDS011;7664;52.008;4.748;2022-10-31T01:27:41;7.82;;;4.00;;
15126;SDS011;7664;52.008;4.748;2022-10-31T01:30:10;6.13;;;4.00;;
15126;SDS011;7664;52.008;4.748;2022-10-31T01:32:38;5.38;;;3.85;;
15126;SDS011;7664;52.008;4.748;2022-10-31T01:35:07;7.30;;;3.60;;
15126;SDS011;7664;52.008;4.748;2022-10-31T01:37:37;5.30;;;3.67;;
15126;SDS011;7664;52.008;4.748;2022-10-31T01:40:06;6.35;;;4.25;;
15126;SDS011;7664;52.008;4.748;2022-10-31T01:42:34;6.32;;;4.20;;
15126;SDS011;7664;52.008;4.748;2022-10-31T01:45:04;6.75;;;3.70;;
15126;SDS011;7664;52.008;4.748;2022-10-31T01:47:34;6.13;;;3.95;;
15126;SDS011;7664;52.008;4.748;2022-10-31T01:50:04;4.70;;;3.85;;
15126;SDS011;7664;52.008;4.748;2022-10-31T01:52:35;4.80;;;3.88;;
15126;SDS011;7664;52.008;4.748;2022-10-31T01:55:08;6.78;;;4.13;;
15126;SDS011;7664;52.008;4.748;2022-10-31T01:57:37;6.53;;;4.70;;
15126;SDS011;7664;52.008;4.748;2022-10-31T02:00:08;6.28;;;3.97;;
15126;SDS011;7664;52.008;4.748;2022-10-31T02:02:40;6.00;;;4.47;;
15126;SDS011;7664;52.008;4.748;2022-10-31T02:05:09;8.77;;;4.15;;
15126;SDS011;7664;52.008;4.748;2022-10-31T02:07:39;5.97;;;4.28;;
15126;SDS011;7664;52.008;4.748;2022-10-31T02:10:11;5.45;;;4.15;;
15126;SDS011;7664;52.008;4.748;2022-10-31T02:12:39;5.38;;;4.53;;
15126;SDS011;7664;52.008;4.748;2022-10-31T02:15:09;5.20;;;3.50;;
15126;SDS011;7664;52.008;4.748;2022-10-31T02:17:41;6.18;;;4.25;;
15126;SDS011;7664;52.008;4.748;2022-10-31T02:20:12;5.68;;;4.13;;
15126;SDS011;7664;52.008;4.748;2022-10-31T02:22:47;8.80;;;4.88;;
15126;SDS011;7664;52.008;4.748;2022-10-31T02:25:24;4.88;;;4.03;;
15126;SDS011;7664;52.008;4.748;2022-10-31T02:28:13;6.57;;;4.43;;
15126;SDS011;7664;52.008;4.748;2022-10-31T02:30:57;4.95;;;3.70;;
15126;SDS011;7664;52.008;4.748;2022-10-31T02:33:29;4.97;;;3.88;;
15126;SDS011;7664;52.008;4.748;2022-10-31T02:36:01;5.28;;;4.05;;
15126;SDS011;7664;52.008;4.748;2022-10-31T02:38:36;5.50;;;4.32;;
15126;SDS011;7664;52.008;4.748;2022-10-31T02:41:13;6.63;;;4.40;;
15126;SDS011;7664;52.008;4.748;2022-10-31T02:43:54;5.43;;;3.88;;
15126;SDS011;7664;52.008;4.748;2022-10-31T02:46:28;8.48;;;4.53;;
15126;SDS011;7664;52.008;4.748;2022-10-31T02:49:03;8.00;;;4.65;;
15126;SDS011;7664;52.008;4.748;2022-10-31T02:51:33;6.63;;;4.65;;
15126;SDS011;7664;52.008;4.748;2022-10-31T02:54:03;4.88;;;3.72;;
15126;SDS011;7664;52.008;4.748;2022-10-31T02:56:31;5.78;;;3.92;;
15126;SDS011;7664;52.008;4.748;2022-10-31T02:59:00;6.70;;;4.72;;
15126;SDS011;7664;52.008;4.748;2022-10-31T03:01:43;6.20;;;4.95;;
15126;SDS011;7664;52.008;4.748;2022-10-31T03:04:21;6.25;;;4.30;;
15126;SDS011;7664;52.008;4.748;2022-10-31T03:06:54;6.80;;;4.40;;
15126;SDS011;7664;52.008;4.748;2022-10-31T03:09:26;6.20;;;4.35;;
15126;SDS011;7664;52.008;4.748;2022-10-31T03:11:57;5.63;;;4.30;;
15126;SDS011;7664;52.008;4.748;2022-10-31T03:14:30;7.22;;;4.38;;
15126;SDS011;7664;52.008;4.748;2022-10-31T03:17:03;9.43;;;4.55;;
15126;SDS011;7664;52.008;4.748;2022-10-31T03:19:34;5.38;;;3.85;;
15126;SDS011;7664;52.008;4.748;2022-10-31T03:22:07;6.88;;;4.72;;
15126;SDS011;7664;52.008;4.748;2022-10-31T03:24:39;8.48;;;4.50;;
15126;SDS011;7664;52.008;4.748;2022-10-31T03:27:09;5.95;;;4.35;;
15126;SDS011;7664;52.008;4.748;2022-10-31T03:29:39;6.57;;;5.18;;
15126;SDS011;7664;52.008;4.748;2022-10-31T03:32:10;6.70;;;4.90;;
15126;SDS011;7664;52.008;4.748;2022-10-31T03:34:42;7.10;;;4.30;;
15126;SDS011;7664;52.008;4.748;2022-10-31T03:37:14;6.60;;;4.97;;
15126;SDS011;7664;52.008;4.748;2022-10-31T03:39:43;8.80;;;5.47;;
15126;SDS011;7664;52.008;4.748;2022-10-31T03:42:13;7.20;;;4.93;;
15126;SDS011;7664;52.008;4.748;2022-10-31T03:44:44;5.85;;;4.18;;
15126;SDS011;7664;52.008;4.748;2022-10-31T03:47:14;7.18;;;5.07;;
15126;SDS011;7664;52.008;4.748;2022-10-31T03:49:47;7.68;;;4.75;;
15126;SDS011;7664;52.008;4.748;2022-10-31T03:52:17;8.10;;;5.07;;
15126;SDS011;7664;52.008;4.748;2022-10-31T03:54:49;6.22;;;5.32;;
15126;SDS011;7664;52.008;4.748;2022-10-31T03:57:21;8.18;;;5.55;;
15126;SDS011;7664;52.008;4.748;2022-10-31T03:59:53;8.93;;;6.03;;
15126;SDS011;7664;52.008;4.748;2022-10-31T04:02:27;9.38;;;5.47;;
15126;SDS011;7664;52.008;4.748;2022-10-31T04:04:57;8.25;;;5.40;;
15126;SDS011;7664;52.008;4.748;2022-10-31T04:07:31;6.68;;;5.22;;
15126;SDS011;7664;52.008;4.748;2022-10-31T04:10:02;12.30;;;5.78;;
15126;SDS011;7664;52.008;4.748;2022-10-31T04:12:32;8.77;;;6.00;;
15126;SDS011;7664;52.008;4.748;2022-10-31T04:15:15;7.60;;;5.35;;
15126;SDS011;7664;52.008;4.748;2022-10-31T04:17:45;9.27;;;5.47;;
15126;SDS011;7664;52.008;4.748;2022-10-31T04:20:16;6.72;;;4.90;;
15126;SDS011;7664;52.008;4.748;2022-10-31T04:22:44;6.18;;;4.68;;
15126;SDS011;7664;52.008;4.748;2022-10-31T04:25:13;6.70;;;4.97;;
15126;SDS011;7664;52.008;4.748;2022-10-31T04:27:41;6.65;;;5.00;;
15126;SDS011;7664;52.008;4.748;2022-10-31T04:30:09;7.70;;;5.40;;
15126;SDS011;7664;52.008;4.748;2022-10-31T04:32:39;10.70;;;6.25;;
15126;SDS011;7664;52.008;4.748;2022-10-31T04:35:09;8.88;;;6.13;;
15126;SDS011;7664;52.008;4.748;2022-10-31T04:37:38;9.30;;;5.63;;
15126;SDS011;7664;52.008;4.748;2022-10-31T04:40:06;9.40;;;6.38;;
15126;SDS011;7664;52.008;4.748;2022-10-31T04:43:01;9.77;;;6.55;;
15126;SDS011;7664;52.008;4.748;2022-10-31T04:45:31;8.10;;;5.90;;
15126;SDS011;7664;52.008;4.748;2022-10-31T04:47:59;10.68;;;5.93;;
15126;SDS011;7664;52.008;4.748;2022-10-31T04:50:33;8.55;;;6.03;;
15126;SDS011;7664;52.008;4.748;2022-10-31T04:53:01;8.35;;;5.93;;
15126;SDS011;7664;52.008;4.748;2022-10-31T04:55:37;8.55;;;5.65;;
15126;SDS011;7664;52.008;4.748;2022-10-31T04:58:11;10.65;;;6.35;;
15126;SDS011;7664;52.008;4.748;2022-10-31T05:00:40;11.43;;;5.65;;
15126;SDS011;7664;52.008;4.748;2022-10-31T05:03:09;7.45;;;5.22;;
15126;SDS011;7664;52.008;4.748;2022-10-31T05:05:38;6.57;;;4.38;;
15126;SDS011;7664;52.008;4.748;2022-10-31T05:08:07;6.90;;;4.50;;
15126;SDS011;7664;52.008;4.748;2022-10-31T05:10:36;6.55;;;4.40;;
15126;SDS011;7664;52.008;4.748;2022-10-31T05:13:05;9.48;;;5.25;;
15126;SDS011;7664;52.008;4.748;2022-10-31T05:15:33;6.70;;;4.40;;
15126;SDS011;7664;52.008;4.748;2022-10-31T05:18:22;5.82;;;4.63;;
15126;SDS011;7664;52.008;4.748;2022-10-31T05:21:11;6.90;;;4.53;;
15126;SDS011;7664;52.008;4.748;2022-10-31T05:23:46;7.22;;;4.25;;
15126;SDS011;7664;52.008;4.748;2022-10-31T05:26:15;5.50;;;3.72;;
15126;SDS011;7664;52.008;4.748;2022-10-31T05:28:45;4.85;;;3.67;;
15126;SDS011;7664;52.008;4.748;2022-10-31T05:31:14;7.57;;;4.57;;
15126;SDS011;7664;52.008;4.748;2022-10-31T05:33:43;5.88;;;3.90;;
15126;SDS011;7664;52.008;4.748;2022-10-31T05:36:47;6.60;;;4.80;;
15126;SDS011;7664;52.008;4.748;2022-10-31T05:39:20;6.28;;;4.72;;
15126;SDS011;7664;52.008;4.748;2022-10-31T05:41:53;8.23;;;4.63;;
15126;SDS011;7664;52.008;4.748;2022-10-31T05:44:25;8.10;;;5.57;;
15126;SDS011;7664;52.008;4.748;2022-10-31T05:47:26;9.23;;;5.45;;
15126;SDS011;7664;52.008;4.748;2022-10-31T05:49:54;7.32;;;4.60;;
15126;SDS011;7664;52.008;4.748;2022-10-31T05:52:46;7.35;;;5.25;;
15126;SDS011;7664;52.008;4.748;2022-10-31T05:55:28;7.22;;;4.60;;
15126;SDS011;7664;52.008;4.748;2022-10-31T05:58:06;6.88;;;5.03;;
15126;SDS011;7664;52.008;4.748;2022-10-31T06:00:36;6.70;;;4.38;;
15126;SDS011;7664;52.008;4.748;2022-10-31T06:03:07;5.00;;;3.83;;
15126;SDS011;7664;52.008;4.748;2022-10-31T06:05:48;7.22;;;4.80;;
15126;SDS011;7664;52.008;4.748;2022-10-31T06:08:24;6.15;;;4.13;;
15126;SDS011;7664;52.008;4.748;2022-10-31T06:10:55;6.32;;;4.43;;
15126;SDS011;7664;52.008;4.748;2022-10-31T06:13:49;6.63;;;5.03;;
15126;SDS011;7664;52.008;4.748;2022-10-31T06:16:22;7.22;;;4.95;;
15126;SDS011;7664;52.008;4.748;2022-10-31T06:18:53;6.90;;;4.80;;
15126;SDS011;7664;52.008;4.748;2022-10-31T06:21:21;8.73;;;4.13;;
15126;SDS011;7664;52.008;4.748;2022-10-31T06:23:51;6.80;;;4.72;;
15126;SDS011;7664;52.008;4.748;2022-10-31T06:26:52;6.43;;;4.50;;
15126;SDS011;7664;52.008;4.748;2022-10-31T06:29:20;7.53;;;4.57;;
15126;SDS011;7664;52.008;4.748;2022-10-31T06:31:59;8.02;;;4.80;;
15126;SDS011;7664;52.008;4.748;2022-10-31T06:34:29;8.70;;;4.95;;
15126;SDS011;7664;52.008;4.748;2022-10-31T06:36:57;6.65;;;3.95;;
15126;SDS011;7664;52.008;4.748;2022-10-31T06:39:28;10.45;;;4.93;;
15126;SDS011;7664;52.008;4.748;2022-10-31T06:41:57;7.82;;;4.93;;
15126;SDS011;7664;52.008;4.748;2022-10-31T06:44:26;7.05;;;4.80;;
15126;SDS011;7664;52.008;4.748;2022-10-31T06:46:54;7.18;;;4.50;;
15126;SDS011;7664;52.008;4.748;2022-10-31T06:49:45;6.72;;;4.68;;
15126;SDS011;7664;52.008;4.748;2022-10-31T06:52:16;5.00;;;3.65;;
15126;SDS011;7664;52.008;4.748;2022-10-31T06:54:45;6.15;;;3.63;;
15126;SDS011;7664;52.008;4.748;2022-10-31T06:57:14;6.35;;;4.22;;
15126;SDS011;7664;52.008;4.748;2022-10-31T06:59:42;6.95;;;4.35;;
15126;SDS011;7664;52.008;4.748;2022-10-31T07:02:15;6.93;;;4.40;;
15126;SDS011;7664;52.008;4.748;2022-10-31T07:04:44;6.50;;;4.28;;
15126;SDS011;7664;52.008;4.748;2022-10-31T07:07:13;6.82;;;4.45;;
15126;SDS011;7664;52.008;4.748;2022-10-31T07:09:42;9.73;;;4.78;;
15126;SDS011;7664;52.008;4.748;2022-10-31T07:12:15;7.82;;;4.80;;
15126;SDS011;7664;52.008;4.748;2022-10-31T07:14:53;9.10;;;4.80;;
15126;SDS011;7664;52.008;4.748;2022-10-31T07:17:22;7.07;;;4.90;;
15126;SDS011;7664;52.008;4.748;2022-10-31T07:19:57;7.05;;;5.10;;
15126;SDS011;7664;52.008;4.748;2022-10-31T07:22:31;8.05;;;5.28;;
15126;SDS011;7664;52.008;4.748;2022-10-31T07:25:00;7.13;;;5.03;;
15126;SDS011;7664;52.008;4.748;2022-10-31T07:27:48;8.52;;;5.97;;
15126;SDS011;7664;52.008;4.748;2022-10-31T07:30:18;8.48;;;5.43;;
15126;SDS011;7664;52.008;4.748;2022-10-31T07:32:49;7.47;;;4.90;;
15126;SDS011;7664;52.008;4.748;2022-10-31T07:35:19;13.25;;;6.65;;
15126;SDS011;7664;52.008;4.748;2022-10-31T07:37:54;12.93;;;6.03;;
15126;SDS011;7664;52.008;4.748;2022-10-31T07:40:24;10.40;;;6.30;;
15126;SDS011;7664;52.008;4.748;2022-10-31T07:42:54;9.30;;;6.38;;
15126;SDS011;7664;52.008;4.748;2022-10-31T07:45:43;13.45;;;6.93;;
15126;SDS011;7664;52.008;4.748;2022-10-31T07:48:30;12.02;;;7.43;;
15126;SDS011;7664;52.008;4.748;2022-10-31T07:51:19;11.90;;;7.13;;
15126;SDS011;7664;52.008;4.748;2022-10-31T07:54:06;11.68;;;7.13;;
15126;SDS011;7664;52.008;4.748;2022-10-31T07:56:35;8.80;;;6.10;;
15126;SDS011;7664;52.008;4.748;2022-10-31T07:59:06;11.15;;;7.20;;
15126;SDS011;7664;52.008;4.748;2022-10-31T08:01:35;9.43;;;6.45;;
15126;SDS011;7664;52.008;4.748;2022-10-31T08:04:32;10.68;;;6.93;;
15126;SDS011;7664;52.008;4.748;2022-10-31T08:07:36;10.65;;;6.30;;
15126;SDS011;7664;52.008;4.748;2022-10-31T08:10:11;8.57;;;6.28;;
15126;SDS011;7664;52.008;4.748;2022-10-31T08:12:39;13.48;;;7.47;;
15126;SDS011;7664;52.008;4.748;2022-10-31T08:15:11;11.82;;;6.38;;
15126;SDS011;7664;52.008;4.748;2022-10-31T08:17:42;10.57;;;6.97;;
15126;SDS011;7664;52.008;4.748;2022-10-31T08:20:10;10.43;;;6.63;;
15126;SDS011;7664;52.008;4.748;2022-10-31T08:22:52;8.13;;;6.30;;
15126;SDS011;7664;52.008;4.748;2022-10-31T08:25:20;10.13;;;7.03;;
15126;SDS011;7664;52.008;4.748;2022-10-31T08:27:51;10.10;;;7.00;;
15126;SDS011;7664;52.008;4.748;2022-10-31T08:30:22;10.02;;;7.57;;
15126;SDS011;7664;52.008;4.748;2022-10-31T08:33:12;10.40;;;7.47;;
15126;SDS011;7664;52.008;4.748;2022-10-31T08:36:04;11.10;;;7.45;;
15126;SDS011;7664;52.008;4.748;2022-10-31T08:38:58;12.10;;;7.88;;
15126;SDS011;7664;52.008;4.748;2022-10-31T08:41:28;12.05;;;8.25;;
15126;SDS011;7664;52.008;4.748;2022-10-31T08:43:58;11.50;;;7.63;;
15126;SDS011;7664;52.008;4.748;2022-10-31T08:46:28;11.00;;;7.90;;
15126;SDS011;7664;52.008;4.748;2022-10-31T08:48:58;11.38;;;8.55;;
15126;SDS011;7664;52.008;4.748;2022-10-31T08:51:27;13.30;;;8.95;;
15126;SDS011;7664;52.008;4.748;2022-10-31T08:53:56;11.82;;;7.90;;
15126;SDS011;7664;52.008;4.748;2022-10-31T08:56:34;12.98;;;8.77;;
15126;SDS011;7664;52.008;4.748;2022-10-31T08:59:11;12.32;;;9.30;;
15126;SDS011;7664;52.008;4.748;2022-10-31T09:02:08;12.50;;;8.85;;
15126;SDS011;7664;52.008;4.748;2022-10-31T09:04:36;16.60;;;9.02;;
15126;SDS011;7664;52.008;4.748;2022-10-31T09:07:05;12.73;;;9.10;;
15126;SDS011;7664;52.008;4.748;2022-10-31T09:09:48;15.23;;;9.60;;
15126;SDS011;7664;52.008;4.748;2022-10-31T09:12:18;16.90;;;10.43;;
15126;SDS011;7664;52.008;4.748;2022-10-31T09:15:05;15.40;;;9.52;;
15126;SDS011;7664;52.008;4.748;2022-10-31T09:17:47;16.50;;;10.25;;
15126;SDS011;7664;52.008;4.748;2022-10-31T09:20:36;17.17;;;10.05;;
15126;SDS011;7664;52.008;4.748;2022-10-31T09:23:06;12.90;;;9.40;;
15126;SDS011;7664;52.008;4.748;2022-10-31T09:25:36;16.98;;;10.10;;
15126;SDS011;7664;52.008;4.748;2022-10-31T09:28:34;14.73;;;10.68;;
15126;SDS011;7664;52.008;4.748;2022-10-31T09:31:11;16.20;;;10.48;;
15126;SDS011;7664;52.008;4.748;2022-10-31T09:33:59;17.42;;;10.63;;
15126;SDS011;7664;52.008;4.748;2022-10-31T09:36:36;18.65;;;10.65;;
15126;SDS011;7664;52.008;4.748;2022-10-31T09:39:10;16.75;;;10.18;;
15126;SDS011;7664;52.008;4.748;2022-10-31T09:41:47;18.00;;;10.80;;
15126;SDS011;7664;52.008;4.748;2022-10-31T09:44:24;17.73;;;10.77;;
15126;SDS011;7664;52.008;4.748;2022-10-31T09:46:56;17.63;;;10.82;;
15126;SDS011;7664;52.008;4.748;2022-10-31T09:49:34;15.75;;;10.60;;
15126;SDS011;7664;52.008;4.748;2022-10-31T09:52:09;16.58;;;11.52;;
15126;SDS011;7664;52.008;4.748;2022-10-31T09:54:40;17.90;;;11.13;;
15126;SDS011;7664;52.008;4.748;2022-10-31T09:57:10;15.98;;;11.13;;
15126;SDS011;7664;52.008;4.748;2022-10-31T09:59:43;23.50;;;11.73;;
15126;SDS011;7664;52.008;4.748;2022-10-31T10:02:15;18.25;;;11.60;;
15126;SDS011;7664;52.008;4.748;2022-10-31T10:04:46;16.63;;;11.50;;
15126;SDS011;7664;52.008;4.748;2022-10-31T10:07:20;16.00;;;10.52;;
15126;SDS011;7664;52.008;4.748;2022-10-31T10:10:12;18.63;;;10.38;;
15126;SDS011;7664;52.008;4.748;2022-10-31T10:13:02;18.27;;;11.25;;
15126;SDS011;7664;52.008;4.748;2022-10-31T10:15:47;21.75;;;12.10;;
15126;SDS011;7664;52.008;4.748;2022-10-31T10:18:20;21.05;;;12.30;;
15126;SDS011;7664;52.008;4.748;2022-10-31T10:20:56;23.17;;;11.10;;
15126;SDS011;7664;52.008;4.748;2022-10-31T10:23:32;15.75;;;11.55;;
15126;SDS011;7664;52.008;4.748;2022-10-31T10:26:03;17.40;;;11.02;;
15126;SDS011;7664;52.008;4.748;2022-10-31T10:28:37;15.93;;;10.15;;
15126;SDS011;7664;52.008;4.748;2022-10-31T10:31:08;16.42;;;10.20;;
15126;SDS011;7664;52.008;4.748;2022-10-31T10:33:39;18.20;;;11.02;;
15126;SDS011;7664;52.008;4.748;2022-10-31T10:36:12;18.48;;;11.70;;
15126;SDS011;7664;52.008;4.748;2022-10-31T10:38:46;18.38;;;11.85;;
15126;SDS011;7664;52.008;4.748;2022-10-31T10:41:17;17.40;;;11.52;;
15126;SDS011;7664;52.008;4.748;2022-10-31T10:43:48;19.05;;;11.30;;
15126;SDS011;7664;52.008;4.748;2022-10-31T10:46:17;17.60;;;11.77;;
15126;SDS011;7664;52.008;4.748;2022-10-31T10:49:06;18.63;;;11.40;;
15126;SDS011;7664;52.008;4.748;2022-10-31T10:51:40;17.25;;;11.85;;
15126;SDS011;7664;52.008;4.748;2022-10-31T10:54:39;17.38;;;11.48;;
15126;SDS011;7664;52.008;4.748;2022-10-31T10:57:11;17.60;;;11.77;;
15126;SDS011;7664;52.008;4.748;2022-10-31T10:59:45;19.02;;;11.57;;
15126;SDS011;7664;52.008;4.748;2022-10-31T11:02:16;16.15;;;10.38;;
15126;SDS011;7664;52.008;4.748;2022-10-31T11:04:45;16.38;;;11.13;;
15126;SDS011;7664;52.008;4.748;2022-10-31T11:07:14;16.35;;;11.27;;
15126;SDS011;7664;52.008;4.748;2022-10-31T11:09:43;16.15;;;10.63;;
15126;SDS011;7664;52.008;4.748;2022-10-31T11:12:16;16.35;;;10.80;;
15126;SDS011;7664;52.008;4.748;2022-10-31T11:14:45;19.65;;;12.40;;
15126;SDS011;7664;52.008;4.748;2022-10-31T11:17:20;19.55;;;11.90;;
15126;SDS011;7664;52.008;4.748;2022-10-31T11:19:59;18.85;;;12.05;;
15126;SDS011;7664;52.008;4.748;2022-10-31T11:22:28;20.52;;;12.38;;
15126;SDS011;7664;52.008;4.748;2022-10-31T11:24:57;19.17;;;11.57;;
15126;SDS011;7664;52.008;4.748;2022-10-31T11:27:25;18.55;;;13.00;;
15126;SDS011;7664;52.008;4.748;2022-10-31T11:30:03;18.33;;;12.18;;
15126;SDS011;7664;52.008;4.748;2022-10-31T11:32:31;20.33;;;11.35;;
15126;SDS011;7664;52.008;4.748;2022-10-31T11:35:00;18.00;;;10.90;;
15126;SDS011;7664;52.008;4.748;2022-10-31T11:37:31;19.25;;;11.48;;
15126;SDS011;7664;52.008;4.748;2022-10-31T11:40:02;17.92;;;11.02;;
15126;SDS011;7664;52.008;4.748;2022-10-31T11:42:35;21.98;;;12.13;;
15126;SDS011;7664;52.008;4.748;2022-10-31T11:45:05;21.83;;;13.02;;
15126;SDS011;7664;52.008;4.748;2022-10-31T11:47:35;16.77;;;11.65;;
15126;SDS011;7664;52.008;4.748;2022-10-31T11:50:08;15.38;;;10.52;;
15126;SDS011;7664;52.008;4.748;2022-10-31T11:52:39;15.27;;;10.30;;
15126;SDS011;7664;52.008;4.748;2022-10-31T11:55:14;19.80;;;11.75;;
15126;SDS011;7664;52.008;4.748;2022-10-31T11:57:44;16.65;;;11.02;;
15126;SDS011;7664;52.008;4.748;2022-10-31T12:00:20;18.10;;;11.68;;
15126;SDS011;7664;52.008;4.748;2022-10-31T12:02:49;18.23;;;11.57;;
15126;SDS011;7664;52.008;4.748;2022-10-31T12:05:18;17.58;;;11.55;;
15126;SDS011;7664;52.008;4.748;2022-10-31T12:07:48;15.05;;;10.77;;
15126;SDS011;7664;52.008;4.748;2022-10-31T12:10:18;17.25;;;11.02;;
15126;SDS011;7664;52.008;4.748;2022-10-31T12:12:54;18.55;;;11.77;;
15126;SDS011;7664;52.008;4.748;2022-10-31T12:15:27;21.10;;;12.75;;
15126;SDS011;7664;52.008;4.748;2022-10-31T12:18:01;18.65;;;12.25;;
15126;SDS011;7664;52.008;4.748;2022-10-31T12:20:36;18.05;;;11.80;;
15126;SDS011;7664;52.008;4.748;2022-10-31T12:23:12;18.27;;;12.23;;
15126;SDS011;7664;52.008;4.748;2022-10-31T12:25:43;20.70;;;12.00;;
15126;SDS011;7664;52.008;4.748;2022-10-31T12:28:23;20.88;;;12.57;;
15126;SDS011;7664;52.008;4.748;2022-10-31T12:30:56;17.33;;;12.50;;
15126;SDS011;7664;52.008;4.748;2022-10-31T12:33:33;18.67;;;13.15;;
15126;SDS011;7664;52.008;4.748;2022-10-31T12:36:08;22.67;;;12.95;;
15126;SDS011;7664;52.008;4.748;2022-10-31T12:38:52;21.52;;;13.07;;
15126;SDS011;7664;52.008;4.748;2022-10-31T12:41:35;24.60;;;14.20;;
15126;SDS011;7664;52.008;4.748;2022-10-31T12:44:06;21.48;;;13.13;;
15126;SDS011;7664;52.008;4.748;2022-10-31T12:46:40;25.15;;;14.30;;
15126;SDS011;7664;52.008;4.748;2022-10-31T12:49:17;22.30;;;13.25;;
15126;SDS011;7664;52.008;4.748;2022-10-31T12:51:52;25.88;;;14.38;;
15126;SDS011;7664;52.008;4.748;2022-10-31T12:54:32;20.55;;;13.02;;
15126;SDS011;7664;52.008;4.748;2022-10-31T12:57:04;21.55;;;13.43;;
15126;SDS011;7664;52.008;4.748;2022-10-31T12:59:36;25.70;;;13.95;;
15126;SDS011;7664;52.008;4.748;2022-10-31T13:02:09;22.00;;;13.93;;
15126;SDS011;7664;52.008;4.748;2022-10-31T13:04:40;26.60;;;15.55;;
15126;SDS011;7664;52.008;4.748;2022-10-31T13:07:11;22.42;;;13.30;;
15126;SDS011;7664;52.008;4.748;2022-10-31T13:09:45;26.67;;;15.75;;
15126;SDS011;7664;52.008;4.748;2022-10-31T13:12:16;24.10;;;14.27;;
15126;SDS011;7664;52.008;4.748;2022-10-31T13:14:46;20.98;;;12.55;;
15126;SDS011;7664;52.008;4.748;2022-10-31T13:17:20;31.45;;;16.73;;
15126;SDS011;7664;52.008;4.748;2022-10-31T13:19:49;28.95;;;15.65;;
15126;SDS011;7664;52.008;4.748;2022-10-31T13:22:20;27.88;;;16.60;;
15126;SDS011;7664;52.008;4.748;2022-10-31T13:24:52;24.17;;;15.50;;
15126;SDS011;7664;52.008;4.748;2022-10-31T13:27:23;28.50;;;16.65;;
15126;SDS011;7664;52.008;4.748;2022-10-31T13:29:56;25.42;;;15.73;;
15126;SDS011;7664;52.008;4.748;2022-10-31T13:32:26;27.50;;;16.48;;
15126;SDS011;7664;52.008;4.748;2022-10-31T13:34:55;25.92;;;15.25;;
15126;SDS011;7664;52.008;4.748;2022-10-31T13:37:27;28.23;;;16.30;;
15126;SDS011;7664;52.008;4.748;2022-10-31T13:40:08;26.92;;;16.92;;
15126;SDS011;7664;52.008;4.748;2022-10-31T13:42:45;24.98;;;15.18;;
15126;SDS011;7664;52.008;4.748;2022-10-31T13:45:18;25.85;;;15.45;;
15126;SDS011;7664;52.008;4.748;2022-10-31T13:47:58;26.35;;;16.83;;
15126;SDS011;7664;52.008;4.748;2022-10-31T13:50:27;25.08;;;14.65;;
15126;SDS011;7664;52.008;4.748;2022-10-31T13:53:09;26.13;;;15.88;;
15126;SDS011;7664;52.008;4.748;2022-10-31T13:55:41;21.90;;;15.18;;
15126;SDS011;7664;52.008;4.748;2022-10-31T13:58:20;23.27;;;16.15;;
15126;SDS011;7664;52.008;4.748;2022-10-31T14:00:59;25.73;;;15.55;;
15126;SDS011;7664;52.008;4.748;2022-10-31T14:03:27;25.08;;;16.27;;
15126;SDS011;7664;52.008;4.748;2022-10-31T14:06:16;28.35;;;16.83;;
15126;SDS011;7664;52.008;4.748;2022-10-31T14:08:47;25.92;;;17.17;;
15126;SDS011;7664;52.008;4.748;2022-10-31T14:11:20;28.40;;;16.55;;
15126;SDS011;7664;52.008;4.748;2022-10-31T14:13:50;28.13;;;17.10;;
15126;SDS011;7664;52.008;4.748;2022-10-31T14:16:20;27.75;;;17.15;;
15126;SDS011;7664;52.008;4.748;2022-10-31T14:18:50;29.38;;;16.30;;
15126;SDS011;7664;52.008;4.748;2022-10-31T14:21:26;24.88;;;15.90;;
15126;SDS011;7664;52.008;4.748;2022-10-31T14:23:55;30.58;;;16.80;;
15126;SDS011;7664;52.008;4.748;2022-10-31T14:26:32;26.70;;;15.70;;
15126;SDS011;7664;52.008;4.748;2022-10-31T14:29:02;29.95;;;16.75;;
15126;SDS011;7664;52.008;4.748;2022-10-31T14:31:31;31.88;;;17.83;;
15126;SDS011;7664;52.008;4.748;2022-10-31T14:34:03;23.90;;;14.35;;
15126;SDS011;7664;52.008;4.748;2022-10-31T14:36:36;33.38;;;17.45;;
15126;SDS011;7664;52.008;4.748;2022-10-31T14:39:10;28.02;;;16.33;;
15126;SDS011;7664;52.008;4.748;2022-10-31T14:41:45;30.85;;;17.42;;
15126;SDS011;7664;52.008;4.748;2022-10-31T14:47:13;27.23;;;16.23;;
15126;SDS011;7664;52.008;4.748;2022-10-31T14:49:49;26.50;;;15.50;;
15126;SDS011;7664;52.008;4.748;2022-10-31T14:52:18;24.58;;;14.65;;
15126;SDS011;7664;52.008;4.748;2022-10-31T14:54:48;27.05;;;15.23;;
15126;SDS011;7664;52.008;4.748;2022-10-31T14:57:20;26.95;;;15.35;;
15126;SDS011;7664;52.008;4.748;2022-10-31T14:59:50;30.23;;;15.90;;
15126;SDS011;7664;52.008;4.748;2022-10-31T15:02:26;22.75;;;14.18;;
15126;SDS011;7664;52.008;4.748;2022-10-31T15:04:57;25.05;;;15.40;;
15126;SDS011;7664;52.008;4.748;2022-10-31T15:07:26;25.60;;;16.08;;
15126;SDS011;7664;52.008;4.748;2022-10-31T15:10:04;26.23;;;15.30;;
15126;SDS011;7664;52.008;4.748;2022-10-31T15:12:34;28.05;;;15.30;;
15126;SDS011;7664;52.008;4.748;2022-10-31T15:15:11;25.38;;;15.07;;
15126;SDS011;7664;52.008;4.748;2022-10-31T15:17:41;31.48;;;16.58;;
15126;SDS011;7664;52.008;4.748;2022-10-31T15:20:11;24.10;;;14.52;;
15126;SDS011;7664;52.008;4.748;2022-10-31T15:22:40;25.00;;;14.85;;
15126;SDS011;7664;52.008;4.748;2022-10-31T15:25:11;21.88;;;14.02;;
15126;SDS011;7664;52.008;4.748;2022-10-31T15:27:44;24.88;;;13.90;;